To NAV CANADA Home Page Login to a new session Search on AWWS site Disclaimer Vers la page française équivalente Tips FAQ What's new on the site To the Forecasts and Observations / NOTAM section To "File a Flight Plan" website Publications and other links Update of the User's profile FIC Telephone Numbers My Weather Data Folder Route Weather Data Regional Weather Data Local Weather Data To the Forecasts and Observations / NOTAM section
Request Generated 06/15/2019 at 23:26:39 UTC . Weather information available at that time is displayed.

METAR/TAF

KITCHENER/WATERLOO/ON    (show WxCam)

SPECI CYKF 152325Z AUTO 32006KT 2 1/2SM BR FEW006 SCT010 OVC016 16/15 A2985 RMK SLP108 DENSITY ALT 1400FT=
SPECI CYKF 152320Z AUTO 32005KT 4SM BR SCT006 OVC016 16/15 A2984 RMK SLP106 DENSITY ALT 1400FT=
SPECI CYKF 152319Z AUTO 31004KT 4SM -RA BR SCT006 BKN010 OVC016 16/15 A2984 RMK SLP106 DENSITY ALT 1400FT=
SPECI CYKF 152318Z AUTO 32004KT 4SM -RA BR BKN006 OVC014 16/15 A2984 RMK SLP106 DENSITY ALT 1400FT=
SPECI CYKF 152315Z AUTO 32006KT 3SM -RA BR SCT006 BKN010 OVC014 16/15 A2984 RMK SLP106 DENSITY ALT 1400FT=
SPECI CYKF 152314Z AUTO 32006KT 3SM -RA BR BKN008 OVC014 16/15 A2984 RMK SLP106 DENSITY ALT 1400FT=
SPECI CYKF 152310Z AUTO 32006KT 2SM -RA BR BKN008 OVC014 16/15 A2984 RMK SLP106 DENSITY ALT 1500FT=
SPECI CYKF 152305Z AUTO 33006KT 1 1/4SM -RA BR OVC008 16/16 A2984 RMK SLP106 DENSITY ALT 1500FT=
SPECI CYKF 152304Z AUTO 32006KT 1 1/4SM -RA BR BKN005 OVC008 16/16 A2984 RMK SLP106 DENSITY ALT 1500FT=
METAR CYKF 152300Z AUTO 34004KT 240V350 1 1/4SM -RA BR OVC008 16/16 A2984 RMK SLP106 DENSITY ALT 1500FT=
SPECI CYKF 152253Z AUTO 25003KT 1 3/4SM -RA BR OVC008 16/16 A2984 RMK SLP106 DENSITY ALT 1500FT=
SPECI CYKF 152244Z AUTO 25004KT 2 1/4SM -RA BR OVC008 16/16 A2984 RMK SLP105 DENSITY ALT 1500FT=
METAR CYKF 152200Z AUTO 24003KT 3SM -RA BR OVC011 17/16 A2984 RMK SLP104 DENSITY ALT 1500FT=
SPECI CYKF 152142Z AUTO 25005KT 5SM -RA BR OVC015 17/16 A2983 RMK SLP103 DENSITY ALT 1600FT=
SPECI CYKF 152127Z AUTO 21007KT 9SM -RA OVC017 17/15 A2983 RMK SLP103 DENSITY ALT 1600FT=
METAR CYKF 152100Z AUTO 23010KT 9SM OVC019 18/15 A2983 RMK SLP103 DENSITY ALT 1700FT=

TAF AMD CYKF 152204Z 1522/1608 22010G20KT P6SM -SHRA OVC015 TEMPO
1522/1604 2SM -SHRA BR BKN006 OVC010
BECMG 1523/1601 33008KT
FM160400 02005KT P6SM OVC015 TEMPO 1604/1608 3SM BR BKN005 OVC010
RMK FCST BASED ON AUTO OBS. NXT FCST BY 160200Z=

BORDEN/ON    

SPECI CYBN 152323Z AUTO 15002KT 9SM -RA OVC003 OVC029 OVC042 OVC047 13/12 A2983=
SPECI CYBN 152306Z AUTO 00000KT 9SM -RA BKN003 OVC021 OVC042 12/12 A2984=
METAR CYBN 152300Z AUTO 00000KT 6SM -RA OVC002 OVC016 OVC042 12/12 A2984 RMK PCPN 2.0MM PAST HR SLP105=
SPECI CYBN 152256Z AUTO 00000KT 2 1/2SM -RA BKN002 OVC016 OVC042 12/12 A2984 RMK VSBY VRBL 2.5V9.+=
SPECI CYBN 152243Z AUTO 06002KT 2 1/4SM -RA SCT004 OVC016 12/12 A2983 RMK VSBY VRBL 1.6V3.0=
SPECI CYBN 152240Z AUTO 09002KT 2 1/4SM -RA BKN004 OVC016 12/12 A2983 RMK VSBY VRBL 1.6V7.0=
SPECI CYBN 152235Z AUTO 04003KT 030V130 3SM -RA VV004 12/12 A2984=
SPECI CYBN 152232Z AUTO 05003KT 040V130 2 1/2SM -RA VV004 12/12 A2983 RMK VSBY VRBL 2.0V7.0=
SPECI CYBN 152221Z AUTO 00000KT 1 3/4SM RA BKN002 OVC044 OVC054 12/12 A2983 RMK VSBY VRBL 1.0V8.0=
SPECI CYBN 152216Z AUTO 00000KT 2SM -RA VV003 12/12 A2983 RMK VSBY VRBL 1.0V6.0=
SPECI CYBN 152215Z AUTO 00000KT 2 1/4SM -RA SCT003 BKN018 OVC044 12/12 A2983 RMK VSBY VRBL 1.0V9.+=
SPECI CYBN 152209Z AUTO 00000KT 5SM -RA FEW004 BKN018 OVC041 12/12 A2984=
METAR CYBN 152200Z AUTO 00000KT 4SM -RA BKN004 BKN018 OVC039 12/12 A2984 RMK SLP106=
SPECI CYBN 152151Z AUTO 01002KT 9SM -RA BKN004 BKN039 12/12 A2983=
SPECI CYBN 152148Z AUTO 35003KT 320V020 9SM -RA SCT007 BKN039 12/12 A2983=
SPECI CYBN 152134Z AUTO 35005KT 9SM -RA OVC005 OVC039 12/12 A2984=
SPECI CYBN 152131Z AUTO 34006KT 9SM OVC004 OVC020 OVC039 12/11 A2984=
SPECI CYBN 152122Z AUTO 35007KT 4SM -RA OVC004 OVC020 OVC039 12/11 A2983=
SPECI CYBN 152113Z AUTO 34007KT 310V040 2 1/2SM -RA OVC004 OVC020 12/11 A2983 RMK VSBY VRBL 1.5V5.0=
SPECI CYBN 152108Z AUTO 34006KT 310V040 2 1/4SM -RA OVC004 12/11 A2983 RMK VSBY VRBL 1.5V5.0=
SPECI CYBN 152104Z AUTO 34007KT 2 1/2SM -DZ OVC004 11/11 A2983 RMK VSBY VRBL 1.5V5.0=
METAR CYBN 152100Z AUTO 34011KT 3SM -DZ OVC004 OVC019 11/11 A2983 RMK SLP103=

*** REMARK        : Forecast period has ended; this was the last TAF issued
*** REMARQUE : La période de prévision est échue; ceci était le dernier TAF qui a été émis
TAF AMD CYBN 142208Z 1420/1506 FCST CNCLD DUE END OF FLYING PROGRAM
RMK NXT FCST WILL BE ISSUED AT 171015Z=

MUSKOKA/ON    (show WxCam)

METAR CYQA 152300Z AUTO 29007KT 200V320 9SM CLR 13/09 A2982 RMK SLP103=
SPECI CYQA 152204Z AUTO 24008KT 220V310 9SM SCT008 BKN048 BKN090 OVC110 12/10 A2981 RMK SLP098=
SPECI CYQA 152201Z AUTO 29007KT 250V320 9SM BKN008 BKN048 OVC110 12/10 A2981 RMK SLP099=
METAR CYQA 152200Z AUTO 29007KT 250V320 9SM SCT008 BKN011 BKN048 OVC110 12/10 A2981 RMK SLP099=
SPECI CYQA 152149Z AUTO 31007KT 250V330 9SM BKN008 BKN048 12/11 A2982 RMK SLP101=
SPECI CYQA 152147Z AUTO 30006KT 250V330 9SM BKN006 BKN048 12/11 A2982 RMK SLP101=
SPECI CYQA 152144Z AUTO 29008KT 9SM FEW006 BKN009 BKN048 12/11 A2981 RMK SLP099=
SPECI CYQA 152141Z AUTO 29007KT 250V320 9SM BKN006 OVC048 12/10 A2981 RMK SLP099=
SPECI CYQA 152128Z AUTO 29008KT 9SM -RA BKN006 OVC012 12/11 A2980 RMK SLP096=
SPECI CYQA 152117Z AUTO 30006KT 250V320 6SM -RA BR BKN004 BKN011 OVC050 12/11 A2979 RMK SLP094=
SPECI CYQA 152116Z AUTO 29005KT 250V320 6SM -RA BR SCT004 BKN008 BKN011 OVC047 12/11 A2979 RMK SLP094=
SPECI CYQA 152115Z AUTO 28004KT 250V310 6SM -RA BR BKN006 BKN011 OVC050 12/11 A2979 RMK SLP094=
SPECI CYQA 152111Z AUTO 28006KT 250V310 6SM -RA BR SCT008 BKN011 OVC050 12/11 A2980 RMK SLP095=
SPECI CYQA 152101Z AUTO 27007KT 4SM -RA BR SCT004 BKN011 OVC050 12/12 A2980 RMK SLP096=
METAR CYQA 152100Z AUTO 27006KT 4SM -RA BR SCT004 BKN008 OVC055 12/11 A2980 RMK SLP096=

TAF AMD CYQA 152003Z 1520/1602 27010G20KT P6SM SCT007 OVC025 TEMPO
1520/1524 3SM -RA -DZ BR BKN007 OVC025
FM160000 27005KT P6SM FEW007
RMK FCST BASED ON AUTO OBS. NXT FCST WILL BE ISSUED AT 161145Z=

HAMILTON/ON    

METAR CYHM 152300Z 23009G16KT 15SM OVC010 18/16 A2984 RMK SC8 SLP104 DENSITY ALT 1400FT=
METAR CYHM 152200Z 22013G18KT 15SM OVC012 18/15 A2984 RMK SC8 SLP104 DENSITY ALT 1400FT=
METAR CYHM 152100Z 22014G20KT 15SM OVC013 18/15 A2984 RMK SC8 SLP107 DENSITY ALT 1400FT=

TAF CYHM 151738Z 1518/1618 23015G28KT P6SM OVC015 TEMPO 1518/1523
P6SM -SHRA OVC010
FM152300 23012KT P6SM -SHRA OVC015 TEMPO 1523/1602 4SM -SHRA BR
BKN007 OVC012
FM160200 33005KT 6SM -SHRA BR OVC010 TEMPO 1602/1605 11/2SM -RA
BR OVC005
FM160500 04008KT 11/2SM -DZ BR OVC005 TEMPO 1605/1610 6SM -SHRA
BR OVC010 PROB40 1605/1609 3/4SM -RA -DZ BR OVC003
FM161000 04012KT P6SM FEW005 OVC012
FM161600 04012KT P6SM BKN020 BKN050
RMK NXT FCST BY 160000Z=

WIARTON/ON    

METAR CYVV 152300Z 27006KT 230V290 15SM FEW030 FEW100 FEW250 12/09 A2984 RMK SC1AC1CI1 SC TR AC TR SLP110=
METAR CYVV 152200Z 26007KT 15SM FEW010 FEW100 FEW250 13/08 A2984 RMK SF1AC1CI2 SF TR AC TR SLP107 DENSITY ALT 800FT=
METAR CYVV 152100Z 27008KT 220V290 15SM FEW004 SCT040 BKN080 12/10 A2983 RMK SF1SC2AC4 SLP105=

*** REMARK        : Forecast period has ended; this was the last TAF issued
*** REMARQUE : La période de prévision est échue; ceci était le dernier TAF qui a été émis
TAF CYVV 151939Z 1520/1523 27005KT P6SM FEW005 OVC050 TEMPO 1520/1522
5SM -SHRA BR BKN003 OVC040
RMK NXT FCST WILL BE ISSUED AT 161045Z=

SARNIA (CHRIS HADFIELD)/ON    (show WxCam)

SPECI CYZR 152303Z AUTO 01009KT 9SM SCT005 OVC017 12/12 A2985 RMK SLP110=
METAR CYZR 152300Z AUTO 01010KT 9SM BKN005 OVC017 12/12 A2985 RMK SLP109=
SPECI CYZR 152256Z AUTO 02010KT 9SM BKN005 OVC017 12/11 A2985 RMK SLP109=
SPECI CYZR 152249Z AUTO 01008KT 6SM -RA BR BKN005 OVC017 12/12 A2985 RMK SLP109=
SPECI CYZR 152220Z AUTO 01010KT 4SM -RA BR BKN005 OVC017 12/11 A2984 RMK SLP108=
SPECI CYZR 152204Z AUTO 01010KT 5SM -RA BR SCT005 OVC017 12/11 A2984 RMK SLP108=
METAR CYZR 152200Z AUTO 02011KT 7SM -RA SCT005 OVC017 12/11 A2984 RMK SLP108=
SPECI CYZR 152136Z AUTO 01011G17KT 7SM -RA SCT019 BKN024 BKN029 OVC037 13/12 A2984 RMK SLP105=
SPECI CYZR 152129Z AUTO 01013G19KT 320V030 8SM -RA SCT019 BKN027 OVC040 13/12 A2983 RMK PRESRR SLP104=
SPECI CYZR 152128Z AUTO 36014G19KT 310V030 9SM -RA SCT019 BKN024 BKN029 OVC040 13/12 A2983 RMK SLP103=
METAR CYZR 152100Z AUTO 21009KT 9SM -RA BKN040 OVC048 20/16 A2982 RMK SLP099 DENSITY ALT 1400FT=

TAF CYZR 151939Z 1520/1602 23010G20KT P6SM OVC030 TEMPO 1520/1523
OVC020
FM152300 23006KT P6SM -RA OVC020 TEMPO 1523/1602 4SM -SHRA BR
BKN007 OVC012
BECMG 1523/1601 01010KT
RMK FCST BASED ON AUTO OBS. NXT FCST WILL BE ISSUED AT 160745Z=

LONDON/ON    

SPECI CYXU 152312Z 23009KT 5SM -SHRA BR FEW008 BKN010 OVC025 18/17 A2984 RMK SF1SF6SC1 CVCTV CLD EMBD SLP105 DENSITY ALT 1600FT=
METAR CYXU 152300Z 24007KT 6SM BR FEW008 BKN012 OVC027 18/17 A2983 RMK SF2SF4SC2 CVCTV CLD EMBD OCNL -SHRA SLP103 DENSITY ALT 1600FT
=
SPECI CYXU 152240Z 21007KT 6SM -SHRA BR BKN014 BKN025 OVC045 18/16 A2983 RMK SF5SC2SC1 CVCTV CLD EMBD SLP103 DENSITY ALT 1600FT=
SPECI CYXU 152214Z 22009G16KT 10SM SCT014 BKN025 BKN055 OVC090 19/16 A2984 RMK SF3SC2SC2AC1 SLP104 DENSITY ALT 1700FT=
METAR CYXU 152200Z 22008KT 12SM -SHRA SCT014 BKN020 OVC090 18/16 A2984 RMK SF3SC3AC2 CVCTV CLD EMBD SLP105 DENSITY ALT 1700FT=
SPECI CYXU 152136Z 23013KT 12SM FEW017 BKN022 OVC090 19/16 A2984 RMK CF1SC5AC2 SLP104 DENSITY ALT 1700FT=
METAR CYXU 152100Z 21008KT 12SM -SHRA FEW020 BKN062 OVC090 19/16 A2984 RMK CF1SC5AC2 CVCTV CLD EMBD SLP106 DENSITY ALT 1700FT=

TAF AMD CYXU 152113Z 1521/1618 22008KT P6SM FEW020 OVC050 TEMPO
1521/1523 P6SM -SHRA OVC015
FM152300 22008KT P6SM -RA OVC015 TEMPO 1523/1603 4SM SHRA BR
BKN007 OVC012
FM160300 05005KT 11/2SM -RA BR OVC005 TEMPO 1603/1608 6SM -SHRA
BR FEW005 OVC010
FM160800 06010KT 5SM BR OVC007
FM161100 07010KT P6SM OVC008
FM161300 07008KT P6SM OVC012
FM161600 07008KT P6SM BKN020 OVC050
RMK NXT FCST BY 160000Z=

ST. CATHARINES/NIAGARA DISTRICT/ON    

METAR CYSN 152300Z 23011G20KT 12SM SCT013 OVC029 18/17 A2983 RMK SC3SC5 SLP104 DENSITY ALT 800FT=
METAR CYSN 152200Z 22013G21KT 15SM BKN015 OVC072 18/16 A2983 RMK SC5AC3 SLP104 DENSITY ALT 900FT=
METAR CYSN 152100Z 23016G27KT 15SM OVC016 18/16 A2984 RMK SC8 SLP106 DENSITY ALT 800FT=

TAF AMD CYSN 152318Z 1523/1601 23010G20KT P6SM OVC025 TEMPO 1523/1601
P6SM -SHRA OVC012
RMK NXT FCST WILL BE ISSUED AT 161245Z=
Your time UTC time
Weather data provided by Environment Canada and NAV CANADA